Aviation Digital Data Service (ADDS)

Output produced by METARs form (0112 UTC 06 December 2019)
found at http://www.aviationweather.gov/metar/data/
 
VTSP 060100Z 07009G19KT 320V120 9999 FEW020 26/20 Q1013 NOSIG
TAF VTSP 052300Z 0600/0706 08010KT 9999 FEW020 
     TEMPO 0602/0608 08010G25KT